createdAt,value
2017-03-02T00:00:12.741Z,24.29
2017-03-02T00:01:23.491Z,24.29
2017-03-02T00:02:33.351Z,23.82
2017-03-02T00:03:44.111Z,23.82
2017-03-02T00:04:54.055Z,24.29
2017-03-02T00:06:04.388Z,24.29
2017-03-02T00:07:15.119Z,23.91
2017-03-02T00:08:25.712Z,24.29
2017-03-02T00:09:35.645Z,23.91
2017-03-02T00:10:45.596Z,23.82
2017-03-02T00:11:55.938Z,23.91
2017-03-02T00:13:05.885Z,23.82
2017-03-02T00:14:16.943Z,23.82
2017-03-02T00:15:27.695Z,23.91
2017-03-02T00:16:38.434Z,24.01
2017-03-02T00:17:48.773Z,23.91
2017-03-02T00:18:58.738Z,23.82
2017-03-02T00:20:09.315Z,23.91
2017-03-02T00:21:19.248Z,23.91
2017-03-02T00:22:29.180Z,23.91
2017-03-02T00:23:39.522Z,24.1
2017-03-02T00:24:49.511Z,24.01
2017-03-02T00:26:00.119Z,24.01
2017-03-02T00:27:11.082Z,24.01
2017-03-02T00:28:21.416Z,24.01
2017-03-02T00:29:32.139Z,24.01
2017-03-02T00:30:42.075Z,23.91
2017-03-02T00:31:52.296Z,23.91
2017-03-02T00:33:02.228Z,23.91
2017-03-02T00:34:12.581Z,24.01
2017-03-02T00:35:22.932Z,24.01
2017-03-02T00:36:32.888Z,23.91
2017-03-02T00:37:42.727Z,23.91
2017-03-02T00:38:53.471Z,24.01
2017-03-02T00:40:03.812Z,23.91
2017-03-02T00:41:14.548Z,24.01
2017-03-02T00:42:24.893Z,23.82
2017-03-02T00:43:35.467Z,23.91
2017-03-02T00:44:45.415Z,24.1
2017-03-02T00:45:55.772Z,24.1
2017-03-02T00:47:06.107Z,24.01
2017-03-02T00:48:16.844Z,23.82
2017-03-02T00:49:26.637Z,23.91
2017-03-02T00:50:36.225Z,24.1
2017-03-02T00:51:46.957Z,23.82
2017-03-02T00:52:56.897Z,24.01
2017-03-02T00:54:07.645Z,24.01
2017-03-02T00:55:17.443Z,24.2
2017-03-02T00:56:27.791Z,23.91
2017-03-02T00:57:38.138Z,24.01
2017-03-02T00:58:48.475Z,23.91
2017-03-02T00:59:58.832Z,24.01
2017-03-02T01:01:09.863Z,24.01
2017-03-02T01:02:20.599Z,24.1
2017-03-02T01:03:30.969Z,24.01
2017-03-02T01:04:41.325Z,24.01
2017-03-02T01:05:51.648Z,24.01
2017-03-02T01:07:02.235Z,24.01
2017-03-02T01:08:12.176Z,23.91
2017-03-02T01:09:22.509Z,23.91
2017-03-02T01:10:33.313Z,24.01
2017-03-02T01:11:43.686Z,24.1
2017-03-02T01:12:54.287Z,23.91
2017-03-02T01:14:04.685Z,24.01
2017-03-02T01:15:14.648Z,24.01
2017-03-02T01:16:24.994Z,24.01
2017-03-02T01:17:34.549Z,23.91
2017-03-02T01:18:45.156Z,24.01
2017-03-02T01:19:55.913Z,24.1
2017-03-02T01:21:06.669Z,23.91
2017-03-02T01:22:17.019Z,23.91
2017-03-02T01:23:27.767Z,24.1
2017-03-02T01:24:38.000Z,24.01
2017-03-02T01:25:47.950Z,24.01
2017-03-02T01:26:57.894Z,23.91
2017-03-02T01:28:08.632Z,24.01
2017-03-02T01:29:18.970Z,24.01
2017-03-02T01:30:29.633Z,24.1
2017-03-02T01:31:39.561Z,24.01
2017-03-02T01:32:49.131Z,24.01
2017-03-02T01:33:59.879Z,23.91
2017-03-02T01:35:10.213Z,24.01
2017-03-02T01:36:20.445Z,24.01
2017-03-02T01:37:31.191Z,24.01
2017-03-02T01:38:41.555Z,24.01
2017-03-02T01:39:51.494Z,24.1
2017-03-02T01:41:01.841Z,24.01
2017-03-02T01:42:12.026Z,24.1
2017-03-02T01:43:21.982Z,24.01
2017-03-02T01:44:32.324Z,24.01
2017-03-02T01:45:43.057Z,24.2
2017-03-02T01:46:52.596Z,24.29
2017-03-02T01:48:03.621Z,24.01
2017-03-02T01:49:13.213Z,24.01
2017-03-02T01:50:23.159Z,24.01
2017-03-02T01:51:33.895Z,24.1
2017-03-02T01:52:44.635Z,24.01
2017-03-02T01:53:55.243Z,24.1
2017-03-02T01:55:05.595Z,24.01
2017-03-02T01:56:15.956Z,24.01
2017-03-02T01:57:25.125Z,23.91
2017-03-02T01:58:35.097Z,23.82
2017-03-02T01:59:45.286Z,23.91
2017-03-02T02:00:55.608Z,24.01
2017-03-02T02:02:05.553Z,23.91
2017-03-02T02:03:16.289Z,24.01
2017-03-02T02:04:25.845Z,24.01
2017-03-02T02:05:36.472Z,24.01
2017-03-02T02:06:46.846Z,23.82
2017-03-02T02:07:56.389Z,23.82
2017-03-02T02:09:06.744Z,24.01
2017-03-02T02:10:15.889Z,23.91
2017-03-02T02:11:26.464Z,23.91
2017-03-02T02:12:36.428Z,23.91
2017-03-02T02:13:46.773Z,23.91
2017-03-02T02:14:56.710Z,23.91
2017-03-02T02:16:06.668Z,24.29
2017-03-02T02:17:17.271Z,23.82
2017-03-02T02:18:27.612Z,23.91
2017-03-02T02:19:37.570Z,23.82
2017-03-02T02:20:47.924Z,24.39
2017-03-02T02:21:57.871Z,24.29
2017-03-02T02:23:08.140Z,23.82
2017-03-02T02:24:18.490Z,23.82
2017-03-02T02:25:28.866Z,23.91
2017-03-02T02:26:39.218Z,23.82
2017-03-02T02:27:49.163Z,24.29
2017-03-02T02:29:00.172Z,24.2
2017-03-02T02:30:10.519Z,24.1
2017-03-02T02:31:20.489Z,24.2
2017-03-02T02:32:30.451Z,24.29
2017-03-02T02:33:40.416Z,24.2
2017-03-02T02:34:50.620Z,24.29
2017-03-02T02:36:00.572Z,23.82
2017-03-02T02:37:10.508Z,24.39
2017-03-02T02:38:20.854Z,24.29
2017-03-02T02:39:31.241Z,24.1
2017-03-02T02:40:41.111Z,24.2
2017-03-02T02:41:51.855Z,24.29
2017-03-02T02:43:02.211Z,24.29
2017-03-02T02:44:12.929Z,24.29
2017-03-02T02:45:22.862Z,24.39
2017-03-02T02:46:32.727Z,24.39
2017-03-02T02:47:43.100Z,24.2
2017-03-02T02:48:53.440Z,24.39
2017-03-02T02:50:03.380Z,24.1
2017-03-02T02:51:14.099Z,24.39
2017-03-02T02:52:24.729Z,24.29
2017-03-02T02:53:35.091Z,24.2
2017-03-02T02:54:45.434Z,24.29
2017-03-02T02:55:55.760Z,24.39
2017-03-02T02:57:06.499Z,24.1
2017-03-02T02:58:16.711Z,24.39
2017-03-02T02:59:26.644Z,24.1
2017-03-02T03:00:36.221Z,24.1
2017-03-02T03:01:45.798Z,24.2
2017-03-02T03:02:56.118Z,24.1
2017-03-02T03:04:06.779Z,24.01
2017-03-02T03:05:17.158Z,24.01
2017-03-02T03:06:27.107Z,24.01
2017-03-02T03:07:37.069Z,24.01
2017-03-02T03:08:47.401Z,24.1
2017-03-02T03:09:58.037Z,24.1
2017-03-02T03:11:08.371Z,23.91
2017-03-02T03:12:18.747Z,24.29
2017-03-02T03:13:29.098Z,24.1
2017-03-02T03:14:39.079Z,24.58
2017-03-02T03:15:49.709Z,24.49
2017-03-02T03:16:59.673Z,24.49
2017-03-02T03:18:10.055Z,24.49
2017-03-02T03:19:20.020Z,24.29
2017-03-02T03:20:30.359Z,24.01
2017-03-02T03:21:40.167Z,24.2
2017-03-02T03:22:50.142Z,24.49
2017-03-02T03:24:00.887Z,24.39
2017-03-02T03:25:10.434Z,24.49
2017-03-02T03:26:20.390Z,24.49
2017-03-02T03:27:31.377Z,24.39
2017-03-02T03:28:40.142Z,24.39
2017-03-02T03:29:50.474Z,24.29
2017-03-02T03:31:00.414Z,24.39
2017-03-02T03:32:09.975Z,24.49
2017-03-02T03:33:20.588Z,24.58
2017-03-02T03:34:30.566Z,24.58
2017-03-02T03:35:40.899Z,24.58
2017-03-02T03:36:49.694Z,24.39
2017-03-02T03:38:00.033Z,24.68
2017-03-02T03:39:10.667Z,24.58
2017-03-02T03:40:20.592Z,24.29
2017-03-02T03:41:31.342Z,24.49
2017-03-02T03:42:41.677Z,24.29
2017-03-02T03:43:51.629Z,24.49
2017-03-02T03:45:02.619Z,24.68
2017-03-02T03:46:12.952Z,24.39
2017-03-02T03:47:23.712Z,24.2
2017-03-02T03:48:33.655Z,24.77
2017-03-02T03:49:44.011Z,24.87
2017-03-02T03:50:53.868Z,24.39
2017-03-02T03:52:04.219Z,24.77
2017-03-02T03:53:14.160Z,24.68
2017-03-02T03:54:23.738Z,24.77
2017-03-02T03:55:34.079Z,24.49
2017-03-02T03:56:43.545Z,24.87
2017-03-02T03:57:54.266Z,24.68
2017-03-02T03:59:04.222Z,24.68
2017-03-02T04:00:14.564Z,24.68
2017-03-02T04:01:24.521Z,24.87
2017-03-02T04:02:34.765Z,24.68
2017-03-02T04:03:45.115Z,24.87
2017-03-02T04:04:55.073Z,24.77
2017-03-02T04:06:05.022Z,24.58
2017-03-02T04:07:14.958Z,24.68
2017-03-02T04:08:25.200Z,24.58
2017-03-02T04:09:35.937Z,24.87
2017-03-02T04:10:46.293Z,24.77
2017-03-02T04:11:56.234Z,24.77
2017-03-02T04:13:06.582Z,24.87
2017-03-02T04:14:17.571Z,24.58
2017-03-02T04:15:27.927Z,24.77
2017-03-02T04:16:37.869Z,24.68
2017-03-02T04:17:48.215Z,24.77
2017-03-02T04:18:58.570Z,24.68
2017-03-02T04:20:09.232Z,24.77
2017-03-02T04:21:19.187Z,24.87
2017-03-02T04:22:29.133Z,24.87
2017-03-02T04:23:39.501Z,24.68
2017-03-02T04:24:49.465Z,24.77
2017-03-02T04:26:00.457Z,24.87
2017-03-02T04:27:11.184Z,24.96
2017-03-02T04:28:21.145Z,24.77
2017-03-02T04:29:31.091Z,24.96
2017-03-02T04:30:41.814Z,24.87
2017-03-02T04:31:51.223Z,24.96
2017-03-02T04:33:01.577Z,24.77
2017-03-02T04:34:10.745Z,24.87
2017-03-02T04:35:20.282Z,24.87
2017-03-02T04:36:31.021Z,24.87
2017-03-02T04:37:41.666Z,24.77
2017-03-02T04:38:51.993Z,24.68
2017-03-02T04:40:01.542Z,24.96
2017-03-02T04:41:11.095Z,25.16
2017-03-02T04:42:21.833Z,25.16
2017-03-02T04:43:32.079Z,25.06
2017-03-02T04:44:42.453Z,25.16
2017-03-02T04:45:53.181Z,25.16
2017-03-02T04:47:03.510Z,24.87
2017-03-02T04:48:13.861Z,25.06
2017-03-02T04:49:24.095Z,25.16
2017-03-02T04:50:34.432Z,25.16
2017-03-02T04:51:45.160Z,25.06
2017-03-02T04:52:55.551Z,25.06
2017-03-02T04:54:05.493Z,24.96
2017-03-02T04:55:16.086Z,25.06
2017-03-02T04:56:26.432Z,25.06
2017-03-02T04:57:36.812Z,25.06
2017-03-02T04:58:47.559Z,24.96
2017-03-02T04:59:57.901Z,24.77
2017-03-02T05:01:08.944Z,24.87
2017-03-02T05:02:18.893Z,24.77
2017-03-02T05:03:29.250Z,24.77
2017-03-02T05:04:38.812Z,24.77
2017-03-02T05:05:49.140Z,24.77
2017-03-02T05:06:58.944Z,25.06
2017-03-02T05:08:08.889Z,24.96
2017-03-02T05:09:19.629Z,24.87
2017-03-02T05:10:30.382Z,25.06
2017-03-02T05:11:41.116Z,25.06
2017-03-02T05:12:51.748Z,24.96
2017-03-02T05:14:01.312Z,24.96
2017-03-02T05:15:11.639Z,24.96
2017-03-02T05:16:21.990Z,24.87
2017-03-02T05:17:32.966Z,25.06
2017-03-02T05:18:42.815Z,24.77
2017-03-02T05:19:51.993Z,24.77
2017-03-02T05:21:01.942Z,24.77
2017-03-02T05:22:11.877Z,24.77
2017-03-02T05:23:21.842Z,25.35
2017-03-02T05:24:32.810Z,25.26
2017-03-02T05:25:42.364Z,25.26
2017-03-02T05:26:52.332Z,25.16
2017-03-02T05:28:01.904Z,25.06
2017-03-02T05:29:11.859Z,25.26
2017-03-02T05:30:22.479Z,25.26
2017-03-02T05:31:33.222Z,25.26
2017-03-02T05:32:43.158Z,25.26
2017-03-02T05:33:53.489Z,25.26
2017-03-02T05:35:03.435Z,25.26
2017-03-02T05:36:14.047Z,25.54
2017-03-02T05:37:23.628Z,25.54
2017-03-02T05:38:33.961Z,25.35
2017-03-02T05:39:43.907Z,25.54
2017-03-02T05:40:54.242Z,25.64
2017-03-02T05:42:05.333Z,25.54
2017-03-02T05:43:15.686Z,25.93
2017-03-02T05:44:25.239Z,25.83
2017-03-02T05:45:35.181Z,25.83
2017-03-02T05:46:44.747Z,25.93
2017-03-02T05:47:55.747Z,25.93
2017-03-02T05:49:05.695Z,25.83
2017-03-02T05:50:16.048Z,25.73
2017-03-02T05:51:26.781Z,25.83
2017-03-02T05:52:37.545Z,25.83
2017-03-02T05:53:48.125Z,25.83
2017-03-02T05:54:58.073Z,25.54
2017-03-02T05:56:08.441Z,25.73
2017-03-02T05:57:19.187Z,25.64
2017-03-02T05:58:29.117Z,25.93
2017-03-02T05:59:39.305Z,25.83
2017-03-02T06:00:49.640Z,25.73
2017-03-02T06:01:59.574Z,26.03
2017-03-02T06:03:09.936Z,26.12
2017-03-02T06:04:20.698Z,26.12
2017-03-02T06:05:30.896Z,25.93
2017-03-02T06:06:40.839Z,26.03
2017-03-02T06:07:50.939Z,25.93
2017-03-02T06:09:01.293Z,26.21
2017-03-02T06:10:12.022Z,26.03
2017-03-02T06:11:22.673Z,26.12
2017-03-02T06:12:33.398Z,25.93
2017-03-02T06:13:43.366Z,26.03
2017-03-02T06:14:54.122Z,26.03
2017-03-02T06:16:04.476Z,26.12
2017-03-02T06:17:13.895Z,26.12
2017-03-02T06:18:23.850Z,26.03
2017-03-02T06:19:34.214Z,26.12
2017-03-02T06:20:43.766Z,26.31
2017-03-02T06:21:54.532Z,26.12
2017-03-02T06:23:05.514Z,26.31
2017-03-02T06:24:15.867Z,26.31
2017-03-02T06:25:26.251Z,26.21
2017-03-02T06:26:36.614Z,26.12
2017-03-02T06:27:47.360Z,26.5
2017-03-02T06:28:57.622Z,26.21
2017-03-02T06:30:07.992Z,26.31
2017-03-02T06:31:18.746Z,26.31
2017-03-02T06:32:28.330Z,26.31
2017-03-02T06:33:38.296Z,26.31
2017-03-02T06:34:49.371Z,26.4
2017-03-02T06:36:00.115Z,26.31
2017-03-02T06:37:10.867Z,26.21
2017-03-02T06:38:21.236Z,26.31
2017-03-02T06:39:31.985Z,26.4
2017-03-02T06:40:43.006Z,26.5
2017-03-02T06:41:53.383Z,26.5
2017-03-02T06:43:03.344Z,26.4
2017-03-02T06:44:13.734Z,26.4
2017-03-02T06:45:24.089Z,26.6
2017-03-02T06:46:34.749Z,26.6
2017-03-02T06:47:45.091Z,26.4
2017-03-02T06:48:54.633Z,26.5
2017-03-02T06:50:04.605Z,26.5
2017-03-02T06:51:14.970Z,26.6
2017-03-02T06:52:25.619Z,26.61
2017-03-02T06:53:35.963Z,26.5
2017-03-02T06:54:46.704Z,26.5
2017-03-02T06:55:57.056Z,26.42
2017-03-02T06:57:07.398Z,26.5
2017-03-02T06:58:17.984Z,26.51
2017-03-02T06:59:28.326Z,26.51
2017-03-02T07:00:38.696Z,26.51
2017-03-02T07:01:49.441Z,26.42
2017-03-02T07:02:59.423Z,26.51
2017-03-02T07:04:10.469Z,26.51
2017-03-02T07:05:20.412Z,26.51
2017-03-02T07:06:30.583Z,26.51
2017-03-02T07:07:40.980Z,26.32
2017-03-02T07:08:51.715Z,26.42
2017-03-02T07:10:01.940Z,26.42
2017-03-02T07:11:12.274Z,26.42
2017-03-02T07:12:22.626Z,26.32
2017-03-02T07:13:33.391Z,26.23
2017-03-02T07:14:43.790Z,26.32
2017-03-02T07:15:54.788Z,26.23
2017-03-02T07:17:05.170Z,26.23
2017-03-02T07:18:15.132Z,26.42
2017-03-02T07:19:25.900Z,26.32
2017-03-02T07:20:36.341Z,26.42
2017-03-02T07:21:47.412Z,26.23
2017-03-02T07:22:57.801Z,26.42
2017-03-02T07:24:08.152Z,26.42
2017-03-02T07:25:18.488Z,26.23
2017-03-02T07:26:28.868Z,26.42
2017-03-02T07:27:39.535Z,26.32
2017-03-02T07:28:50.298Z,26.51
2017-03-02T07:29:59.915Z,26.13
2017-03-02T07:31:10.246Z,26.24
2017-03-02T07:32:20.594Z,26.15
2017-03-02T07:33:30.847Z,26.43
2017-03-02T07:34:41.643Z,26.24
2017-03-02T07:35:52.040Z,26.24
2017-03-02T07:37:02.638Z,26.32
2017-03-02T07:38:13.735Z,26.32
2017-03-02T07:39:24.362Z,26.13
2017-03-02T07:40:35.122Z,26.34
2017-03-02T07:41:45.494Z,26.15
2017-03-02T07:42:56.232Z,26.43
2017-03-02T07:44:06.971Z,26.34
2017-03-02T07:45:17.272Z,26.62
2017-03-02T07:46:28.030Z,26.15
2017-03-02T07:47:38.782Z,26.24
2017-03-02T07:48:49.205Z,26.24
2017-03-02T07:49:59.662Z,26.34
2017-03-02T07:51:10.382Z,26.34
2017-03-02T07:52:20.343Z,26.34
2017-03-02T07:53:30.749Z,26.34
2017-03-02T07:54:41.144Z,26.23
2017-03-02T07:55:51.920Z,26.32
2017-03-02T07:57:03.220Z,26.43
2017-03-02T07:58:13.226Z,26.43
2017-03-02T07:59:23.985Z,26.42
2017-03-02T08:00:34.750Z,26.34
2017-03-02T08:01:45.148Z,26.53
2017-03-02T08:02:55.767Z,26.53
2017-03-02T08:04:06.544Z,26.43
2017-03-02T08:05:16.906Z,26.53
2017-03-02T08:06:27.239Z,26.53
2017-03-02T08:07:38.019Z,26.62
2017-03-02T08:08:48.641Z,26.61
2017-03-02T08:09:59.376Z,26.61
2017-03-02T08:11:09.335Z,26.62
2017-03-02T08:12:19.313Z,26.62
2017-03-02T08:13:29.672Z,26.72
2017-03-02T08:14:40.673Z,26.72
2017-03-02T08:15:51.027Z,26.72
2017-03-02T08:17:01.377Z,26.82
2017-03-02T08:18:12.132Z,26.9
2017-03-02T08:19:22.500Z,27.11
2017-03-02T08:20:33.202Z,27.28
2017-03-02T08:21:43.962Z,27.19
2017-03-02T08:22:54.702Z,27.28
2017-03-02T08:24:05.071Z,27.19
2017-03-02T08:25:15.417Z,27
2017-03-02T08:26:25.818Z,27
2017-03-02T08:27:35.777Z,27.19
2017-03-02T08:28:46.167Z,27.38
2017-03-02T08:29:56.535Z,27.09
2017-03-02T08:31:06.762Z,27.3
2017-03-02T08:32:17.160Z,27.67
2017-03-02T08:33:27.927Z,27.86
2017-03-02T08:34:38.692Z,27.95
2017-03-02T08:35:49.073Z,27.78
2017-03-02T08:37:00.145Z,27.69
2017-03-02T08:38:10.888Z,27.87
2017-03-02T08:39:20.886Z,27.69
2017-03-02T08:40:31.220Z,27.97
2017-03-02T08:41:41.589Z,27.78
2017-03-02T08:42:52.234Z,27.87
2017-03-02T08:44:02.590Z,27.78
2017-03-02T08:45:12.965Z,27.87
2017-03-02T08:46:22.920Z,27.97
2017-03-02T08:47:33.627Z,27.95
2017-03-02T08:48:43.882Z,28.05
2017-03-02T08:49:54.640Z,28.05
2017-03-02T08:51:04.219Z,28.25
2017-03-02T08:52:14.570Z,28.25
2017-03-02T08:53:25.343Z,28.15
2017-03-02T08:54:36.341Z,28.15
2017-03-02T08:55:46.730Z,28.16
2017-03-02T08:56:57.086Z,28.15
2017-03-02T08:58:07.068Z,28.05
2017-03-02T08:59:17.036Z,28.15
2017-03-02T09:00:27.225Z,28.07
2017-03-02T09:01:37.607Z,28.07
2017-03-02T09:02:48.017Z,27.97
2017-03-02T09:03:58.401Z,28.53
2017-03-02T09:05:08.779Z,28.84
2017-03-02T09:06:19.370Z,28.74
2017-03-02T09:07:29.752Z,28.84
2017-03-02T09:08:40.497Z,29.4
2017-03-02T09:09:50.900Z,29.13
2017-03-02T09:11:00.869Z,29.41
2017-03-02T09:12:11.934Z,29.61
2017-03-02T09:13:21.887Z,29.99
2017-03-02T09:14:31.844Z,29.99
2017-03-02T09:15:42.215Z,29.99
2017-03-02T09:16:52.586Z,30.08
2017-03-02T09:18:03.240Z,29.9
2017-03-02T09:19:13.610Z,30.47
2017-03-02T09:20:23.584Z,30.28
2017-03-02T09:21:33.933Z,30.57
2017-03-02T09:22:44.672Z,30.66
2017-03-02T09:23:55.659Z,30.76
2017-03-02T09:25:06.053Z,30.66
2017-03-02T09:26:16.402Z,30.76
2017-03-02T09:27:26.785Z,30.77
2017-03-02T09:28:37.578Z,30.58
2017-03-02T09:29:47.799Z,30.77
2017-03-02T09:30:58.578Z,30.87
2017-03-02T09:32:08.138Z,30.77
2017-03-02T09:33:18.475Z,30.68
2017-03-02T09:34:28.860Z,30.68
2017-03-02T09:35:39.065Z,30.68
2017-03-02T09:36:49.445Z,30.58
2017-03-02T09:38:00.247Z,30.39
2017-03-02T09:39:10.478Z,30.39
2017-03-02T09:40:20.118Z,30
2017-03-02T09:41:31.138Z,30
2017-03-02T09:42:41.502Z,30.1
2017-03-02T09:43:51.115Z,29.81
2017-03-02T09:45:01.921Z,29.72
2017-03-02T09:46:12.708Z,29.81
2017-03-02T09:47:23.417Z,29.43
2017-03-02T09:48:34.180Z,29.72
2017-03-02T09:49:44.561Z,29.62
2017-03-02T09:50:54.945Z,29.51
2017-03-02T09:52:05.726Z,29.51
2017-03-02T09:53:16.443Z,29.41
2017-03-02T09:54:26.802Z,29.51
2017-03-02T09:55:37.579Z,29.22
2017-03-02T09:56:48.321Z,29.32
2017-03-02T09:57:58.674Z,29.7
2017-03-02T09:59:09.686Z,29.8
2017-03-02T10:00:19.685Z,29.51
2017-03-02T10:01:30.452Z,29.43
2017-03-02T10:02:40.802Z,28.74
2017-03-02T10:03:50.792Z,29.51
2017-03-02T10:05:01.093Z,29.03
2017-03-02T10:06:11.851Z,29.03
2017-03-02T10:07:22.620Z,28.84
2017-03-02T10:08:32.999Z,28.55
2017-03-02T10:09:42.968Z,28.07
2017-03-02T10:10:53.173Z,28.16
2017-03-02T10:12:03.928Z,28.27
2017-03-02T10:13:14.290Z,27.98
2017-03-02T10:14:24.636Z,27.89
2017-03-02T10:15:35.418Z,28.08
2017-03-02T10:16:46.031Z,27.98
2017-03-02T10:17:56.789Z,27.89
2017-03-02T10:19:07.567Z,27.5
2017-03-02T10:20:17.532Z,27.4
2017-03-02T10:21:28.278Z,27.5
2017-03-02T10:22:38.913Z,27.02
2017-03-02T10:23:49.295Z,27.31
2017-03-02T10:24:59.666Z,27.5
2017-03-02T10:26:09.641Z,27.02
2017-03-02T10:27:19.256Z,27.31
2017-03-02T10:28:29.858Z,27.12
2017-03-02T10:29:40.641Z,27.12
2017-03-02T10:30:50.994Z,26.83
2017-03-02T10:32:00.972Z,26.73
2017-03-02T10:33:10.585Z,26.84
2017-03-02T10:34:20.440Z,26.73
2017-03-02T10:35:30.799Z,26.65
2017-03-02T10:36:41.549Z,26.45
2017-03-02T10:37:51.919Z,26.64
2017-03-02T10:39:02.271Z,26.16
2017-03-02T10:40:13.301Z,26.27
2017-03-02T10:41:23.647Z,25.78
2017-03-02T10:42:34.001Z,25.98
2017-03-02T10:43:44.348Z,25.79
2017-03-02T10:44:54.711Z,25.88
2017-03-02T10:46:05.760Z,25.69
2017-03-02T10:47:16.137Z,25.69
2017-03-02T10:48:26.502Z,25.49
2017-03-02T10:49:36.880Z,25.59
2017-03-02T10:50:47.651Z,25.21
2017-03-02T10:51:58.282Z,25.11
2017-03-02T10:53:09.027Z,24.73
2017-03-02T10:54:18.995Z,25.21
2017-03-02T10:55:29.978Z,24.73
2017-03-02T10:56:39.931Z,24.92
2017-03-02T10:57:50.998Z,24.73
2017-03-02T10:59:01.003Z,24.44
2017-03-02T11:00:11.379Z,23.96
2017-03-02T11:01:22.125Z,23.86
2017-03-02T11:02:32.093Z,23.94
2017-03-02T11:03:42.722Z,24.24
2017-03-02T11:04:53.076Z,24.14
2017-03-02T11:06:03.434Z,23.94
2017-03-02T11:07:13.417Z,23.86
2017-03-02T11:08:23.372Z,23.94
2017-03-02T11:09:33.996Z,23.66
2017-03-02T11:10:43.975Z,23.77
2017-03-02T11:11:53.955Z,24.04
2017-03-02T11:13:04.717Z,23.94
2017-03-02T11:14:15.078Z,23.85
2017-03-02T11:15:25.331Z,23.66
2017-03-02T11:16:36.089Z,23.75
2017-03-02T11:17:46.854Z,23.66
2017-03-02T11:18:57.223Z,23.37
2017-03-02T11:20:07.594Z,23.27
2017-03-02T11:21:17.800Z,23.27
2017-03-02T11:22:27.766Z,23.18
2017-03-02T11:23:37.716Z,23.27
2017-03-02T11:24:48.056Z,23.27
2017-03-02T11:25:58.791Z,23.27
2017-03-02T11:27:09.416Z,23.37
2017-03-02T11:28:19.805Z,23.56
2017-03-02T11:29:29.789Z,23.27
2017-03-02T11:30:40.166Z,23.27
2017-03-02T11:31:50.973Z,23.27
2017-03-02T11:33:01.972Z,23.27
2017-03-02T11:34:11.954Z,23.18
2017-03-02T11:35:21.898Z,23.18
2017-03-02T11:36:31.468Z,23.27
2017-03-02T11:37:41.828Z,23.27
2017-03-02T11:38:52.045Z,23.18
2017-03-02T11:40:02.404Z,23.18
2017-03-02T11:41:12.353Z,23.08
2017-03-02T11:42:22.691Z,23.66
2017-03-02T11:43:33.090Z,23.46
2017-03-02T11:44:44.067Z,23.94
2017-03-02T11:45:54.424Z,23.75
2017-03-02T11:47:04.400Z,23.56
2017-03-02T11:48:15.167Z,23.85
2017-03-02T11:49:25.551Z,23.94
2017-03-02T11:50:36.148Z,23.85
2017-03-02T11:51:46.936Z,23.85
2017-03-02T11:52:57.689Z,24.14
2017-03-02T11:54:08.036Z,24.33
2017-03-02T11:55:18.407Z,24.23
2017-03-02T11:56:28.987Z,24.23
2017-03-02T11:57:38.944Z,24.24
2017-03-02T11:58:48.893Z,23.94
2017-03-02T11:59:59.645Z,24.14
2017-03-02T12:01:09.605Z,23.85
2017-03-02T12:02:20.222Z,23.96
2017-03-02T12:03:30.198Z,23.75
2017-03-02T12:04:40.583Z,23.96
2017-03-02T12:05:50.969Z,23.86
2017-03-02T12:07:01.354Z,23.96
2017-03-02T12:08:11.978Z,23.77
2017-03-02T12:09:22.329Z,23.96
2017-03-02T12:10:32.282Z,23.86
2017-03-02T12:11:42.612Z,23.96
2017-03-02T12:12:52.570Z,24.05
2017-03-02T12:14:01.985Z,24.05
2017-03-02T12:15:11.993Z,24.34
2017-03-02T12:16:22.785Z,23.86
2017-03-02T12:17:33.131Z,24.05
2017-03-02T12:18:43.481Z,23.86
2017-03-02T12:19:54.122Z,24.44
2017-03-02T12:21:04.509Z,23.96
2017-03-02T12:22:15.263Z,23.86
2017-03-02T12:23:26.005Z,23.96
2017-03-02T12:24:35.984Z,24.15
2017-03-02T12:25:46.347Z,23.96
2017-03-02T12:26:56.314Z,24.05
2017-03-02T12:28:06.250Z,24.34
2017-03-02T12:29:16.998Z,23.96
2017-03-02T12:30:26.967Z,23.86
2017-03-02T12:31:37.197Z,23.96
2017-03-02T12:32:47.545Z,23.77
2017-03-02T12:33:57.901Z,23.86
2017-03-02T12:35:08.650Z,23.77
2017-03-02T12:36:19.246Z,23.94
2017-03-02T12:37:29.579Z,23.75
2017-03-02T12:38:40.356Z,23.67
2017-03-02T12:39:51.117Z,23.46
2017-03-02T12:41:01.469Z,23.18
2017-03-02T12:42:12.238Z,23.27
2017-03-02T12:43:22.971Z,23.27
2017-03-02T12:44:33.311Z,23.27
2017-03-02T12:45:44.046Z,23.37
2017-03-02T12:46:54.631Z,23.28
2017-03-02T12:48:05.421Z,23.27
2017-03-02T12:49:16.171Z,23.27
2017-03-02T12:50:26.931Z,23.19
2017-03-02T12:51:37.321Z,23.27
2017-03-02T12:52:47.920Z,23.18
2017-03-02T12:53:58.656Z,23.18
2017-03-02T12:55:09.013Z,23.46
2017-03-02T12:56:19.347Z,23.86
2017-03-02T12:57:29.709Z,23.86
2017-03-02T12:58:39.924Z,23.94
2017-03-02T12:59:50.698Z,23.67
2017-03-02T13:01:01.441Z,23.96
2017-03-02T13:02:11.780Z,23.66
2017-03-02T13:03:22.409Z,23.66
2017-03-02T13:04:33.024Z,23.86
2017-03-02T13:05:43.823Z,23.75
2017-03-02T13:06:54.573Z,23.94
2017-03-02T13:08:05.311Z,23.85
2017-03-02T13:09:15.690Z,23.85
2017-03-02T13:10:26.730Z,23.66
2017-03-02T13:11:37.490Z,23.85
2017-03-02T13:12:47.863Z,23.75
2017-03-02T13:13:58.608Z,23.75
2017-03-02T13:15:08.971Z,23.94
2017-03-02T13:16:19.242Z,23.75
2017-03-02T13:17:29.998Z,23.85
2017-03-02T13:18:39.926Z,23.85
2017-03-02T13:19:50.301Z,23.75
2017-03-02T13:21:01.059Z,23.85
2017-03-02T13:22:12.097Z,23.94
2017-03-02T13:23:21.657Z,23.66
2017-03-02T13:24:32.057Z,23.94
2017-03-02T13:25:42.406Z,23.85
2017-03-02T13:26:53.164Z,23.75
2017-03-02T13:28:03.762Z,23.75
2017-03-02T13:29:13.730Z,23.75
2017-03-02T13:30:24.466Z,23.85
2017-03-02T13:31:34.425Z,24.14
2017-03-02T13:32:44.363Z,23.85
2017-03-02T13:33:55.366Z,23.85
2017-03-02T13:35:05.753Z,23.85
2017-03-02T13:36:16.528Z,23.94
2017-03-02T13:37:27.048Z,24.04
2017-03-02T13:38:37.403Z,23.85
2017-03-02T13:39:47.219Z,23.75
2017-03-02T13:40:57.182Z,23.85
2017-03-02T13:42:07.554Z,23.75
2017-03-02T13:43:17.932Z,23.66
2017-03-02T13:44:27.912Z,24.04
2017-03-02T13:45:38.191Z,23.93
2017-03-02T13:46:47.743Z,23.75
2017-03-02T13:47:58.105Z,23.66
2017-03-02T13:49:09.213Z,23.84
2017-03-02T13:50:20.012Z,23.74
2017-03-02T13:51:30.225Z,23.65
2017-03-02T13:52:40.992Z,23.74
2017-03-02T13:53:51.359Z,23.65
2017-03-02T13:55:01.384Z,23.74
2017-03-02T13:56:11.720Z,23.84
2017-03-02T13:57:21.647Z,23.84
2017-03-02T13:58:31.990Z,23.94
2017-03-02T13:59:42.799Z,23.74
2017-03-02T14:00:52.781Z,23.93
2017-03-02T14:02:03.128Z,23.93
2017-03-02T14:03:13.782Z,23.93
2017-03-02T14:04:24.224Z,23.93
2017-03-02T14:05:34.995Z,23.94
2017-03-02T14:06:45.404Z,23.93
2017-03-02T14:07:55.759Z,23.84
2017-03-02T14:09:06.369Z,23.94
2017-03-02T14:10:16.741Z,24.23
2017-03-02T14:11:27.099Z,24.32
2017-03-02T14:12:37.828Z,24.23
2017-03-02T14:13:47.813Z,24.33
2017-03-02T14:14:58.428Z,24.03
2017-03-02T14:16:08.374Z,24.03
2017-03-02T14:17:17.933Z,24.22
2017-03-02T14:18:28.251Z,24.04
2017-03-02T14:19:38.601Z,24.04
2017-03-02T14:20:49.218Z,24.13
2017-03-02T14:21:59.945Z,23.93
2017-03-02T14:23:10.717Z,24.41
2017-03-02T14:24:20.303Z,24.32
2017-03-02T14:25:31.080Z,24.41
2017-03-02T14:26:41.670Z,24.13
2017-03-02T14:27:52.009Z,24.32
2017-03-02T14:29:01.941Z,24.32
2017-03-02T14:30:12.299Z,24.32
2017-03-02T14:31:23.033Z,24.32
2017-03-02T14:32:34.113Z,24.41
2017-03-02T14:33:44.860Z,24.41
2017-03-02T14:34:54.782Z,24.03
2017-03-02T14:36:04.742Z,24.13
2017-03-02T14:37:14.719Z,24.41
2017-03-02T14:38:25.313Z,24.03
2017-03-02T14:39:35.660Z,24.13
2017-03-02T14:40:45.601Z,24.03
2017-03-02T14:41:56.339Z,24.13
2017-03-02T14:43:06.728Z,24.03
2017-03-02T14:44:17.462Z,24.03
2017-03-02T14:45:28.223Z,24.32
2017-03-02T14:46:38.592Z,24.51
2017-03-02T14:47:49.327Z,24.51
2017-03-02T14:48:59.507Z,24.51
2017-03-02T14:50:09.851Z,24.13
2017-03-02T14:51:20.198Z,24.22
2017-03-02T14:52:30.541Z,24.32
2017-03-02T14:53:40.881Z,24.51
2017-03-02T14:54:56.651Z,24.51
2017-03-02T14:56:07.001Z,24.41
2017-03-02T14:57:17.752Z,24.7
2017-03-02T14:58:28.078Z,24.32
2017-03-02T14:59:38.412Z,24.7
2017-03-02T15:00:48.220Z,24.51
2017-03-02T15:01:58.158Z,24.8
2017-03-02T15:03:08.121Z,24.7
2017-03-02T15:04:18.047Z,24.8
2017-03-02T15:05:27.182Z,24.7
2017-03-02T15:06:37.362Z,24.61
2017-03-02T15:07:46.908Z,24.7
2017-03-02T15:08:57.242Z,24.8